Time;durP1;ratioP1;P1;durP2;ratioP2;P2;SDS_P1;SDS_P2;PMS_P1;PMS_P2;Temp;Humidity;BMP_temperature;BMP_pressure;BME280_temperature;BME280_humidity;BME280_pressure;Samples;Min_cycle;Max_cycle;Signal;HPM_P1;HPM_P2
2023/12/01 00:00:34;;;;;;;18.63;10.65;;;0.60;99.90;;;;;;5089206;28;20223;-77
2023/12/01 00:02:59;;;;;;;18.42;9.75;;;-0.40;99.90;;;;;;5061034;28;20368;-77
2023/12/01 00:05:25;;;;;;;18.70;9.73;;;-0.40;99.90;;;;;;5054142;28;20077;-77
2023/12/01 00:07:51;;;;;;;16.88;8.98;;;-0.40;99.90;;;;;;5094321;28;20020;-76
2023/12/01 00:10:16;;;;;;;18.75;9.90;;;-0.50;99.90;;;;;;5078250;28;20059;-76
2023/12/01 00:12:42;;;;;;;18.30;9.68;;;-0.50;99.90;;;;;;5064337;28;20112;-76
2023/12/01 00:15:09;;;;;;;17.15;9.52;;;-0.20;99.90;;;;;;5061906;28;20052;-77
2023/12/01 00:17:35;;;;;;;19.85;10.70;;;-0.50;99.90;;;;;;5073339;28;20308;-77
2023/12/01 00:20:01;;;;;;;18.30;10.02;;;0.00;99.90;;;;;;5064769;28;20024;-77
2023/12/01 00:22:27;;;;;;;19.20;10.60;;;-0.40;99.90;;;;;;5071857;28;20118;-77
2023/12/01 00:24:53;;;;;;;17.73;9.75;;;-0.40;99.90;;;;;;5060838;28;20020;-77
2023/12/01 00:27:19;;;;;;;19.67;10.60;;;-0.20;99.90;;;;;;5047407;28;20027;-76
2023/12/01 00:29:44;;;;;;;20.42;10.13;;;-0.40;99.90;;;;;;5069402;28;20032;-76
2023/12/01 00:32:10;;;;;;;17.98;9.18;;;0.40;99.90;;;;;;5069471;28;20044;-77
2023/12/01 00:34:36;;;;;;;18.65;9.85;;;-0.50;99.90;;;;;;5071495;28;20142;-76
2023/12/01 00:37:01;;;;;;;16.98;9.15;;;0.80;99.90;;;;;;5047655;28;20032;-76
2023/12/01 00:39:27;;;;;;;17.60;9.20;;;-0.50;99.90;;;;;;5055596;28;20036;-76
2023/12/01 00:41:53;;;;;;;17.55;9.18;;;0.00;99.90;;;;;;5064316;28;20097;-77
2023/12/01 00:44:18;;;;;;;21.13;10.20;;;-0.10;99.90;;;;;;5097955;28;20092;-76
2023/12/01 00:46:44;;;;;;;19.30;10.85;;;-0.60;99.90;;;;;;5046818;28;20222;-77
2023/12/01 00:49:11;;;;;;;17.75;9.60;;;0.10;99.90;;;;;;5049245;28;20016;-77
2023/12/01 00:51:41;;;;;;;18.95;10.00;;;-0.60;99.90;;;;;;5068321;28;20028;-77
2023/12/01 00:54:07;;;;;;;20.20;10.90;;;-0.70;99.90;;;;;;5063515;28;20024;-77
2023/12/01 00:56:33;;;;;;;20.20;9.65;;;-0.70;99.90;;;;;;5066206;28;20233;-77
2023/12/01 00:58:58;;;;;;;20.08;9.88;;;-0.80;99.90;;;;;;5048055;28;20095;-77
2023/12/01 01:01:24;;;;;;;17.08;8.30;;;0.50;99.90;;;;;;5080871;28;20052;-77
2023/12/01 01:03:50;;;;;;;19.10;9.60;;;-0.90;99.90;;;;;;5049849;28;20019;-77
2023/12/01 01:06:15;;;;;;;18.23;9.55;;;-0.90;99.90;;;;;;5066617;28;20031;-77
2023/12/01 01:08:41;;;;;;;21.48;10.65;;;-0.90;99.90;;;;;;5052821;28;20013;-78
2023/12/01 01:11:07;;;;;;;22.35;11.10;;;-0.90;99.90;;;;;;5051378;28;20266;-79
2023/12/01 01:13:33;;;;;;;21.08;10.20;;;0.50;99.90;;;;;;5034761;28;20029;-77
2023/12/01 01:15:59;;;;;;;19.70;10.07;;;-0.90;99.90;;;;;;5080809;28;20059;-76
2023/12/01 01:18:25;;;;;;;20.73;10.70;;;-0.90;99.90;;;;;;5063512;28;20101;-77
2023/12/01 01:20:51;;;;;;;23.05;11.63;;;-0.90;99.90;;;;;;5065327;28;20262;-77
2023/12/01 01:23:17;;;;;;;23.48;11.90;;;-0.90;99.90;;;;;;5064427;28;20025;-77
2023/12/01 01:25:42;;;;;;;23.25;11.68;;;-0.90;99.90;;;;;;5066861;28;20082;-76
2023/12/01 01:28:08;;;;;;;22.48;11.55;;;-0.90;99.90;;;;;;5062729;28;20024;-76
2023/12/01 01:30:35;;;;;;;23.58;12.10;;;-0.90;99.90;;;;;;5051801;28;20025;-77
2023/12/01 01:33:01;;;;;;;22.80;10.98;;;-0.90;99.90;;;;;;5097478;28;20025;-77
2023/12/01 01:35:27;;;;;;;27.13;12.25;;;-0.90;99.90;;;;;;5064270;28;20078;-77
2023/12/01 01:37:52;;;;;;;24.95;12.48;;;0.10;99.90;;;;;;5068033;28;20302;-76
2023/12/01 01:40:18;;;;;;;23.65;12.20;;;-0.90;99.90;;;;;;5064129;28;20093;-77
2023/12/01 01:42:44;;;;;;;24.92;11.25;;;-0.90;99.90;;;;;;5083957;28;20032;-76
2023/12/01 01:45:10;;;;;;;23.73;11.40;;;-0.90;99.90;;;;;;5054574;28;20170;-77
2023/12/01 01:47:36;;;;;;;24.70;11.75;;;-1.00;99.90;;;;;;5078184;28;20063;-76
2023/12/01 01:50:03;;;;;;;20.73;10.13;;;-1.00;99.90;;;;;;5064009;28;20127;-77
2023/12/01 01:52:29;;;;;;;22.40;10.82;;;-1.00;99.90;;;;;;5047336;28;20029;-77
2023/12/01 01:54:56;;;;;;;23.05;11.48;;;-0.20;99.90;;;;;;5045367;28;20357;-77
2023/12/01 01:57:22;;;;;;;22.58;11.15;;;-0.70;99.90;;;;;;5065342;28;20087;-79
2023/12/01 01:59:47;;;;;;;21.70;11.05;;;0.90;99.90;;;;;;5047059;28;20021;-77
2023/12/01 02:02:13;;;;;;;23.88;11.60;;;-1.00;99.90;;;;;;5049974;28;20024;-76
2023/12/01 02:04:39;;;;;;;21.77;10.70;;;-1.00;99.90;;;;;;5064029;28;20028;-77
2023/12/01 02:07:05;;;;;;;23.45;10.80;;;-0.50;99.90;;;;;;5063754;28;20186;-77
2023/12/01 02:09:34;;;;;;;20.73;9.85;;;-1.10;99.90;;;;;;5061141;28;20035;-77
2023/12/01 02:12:00;;;;;;;23.50;11.27;;;-1.10;99.90;;;;;;5073739;28;20282;-77
2023/12/01 02:14:26;;;;;;;21.20;10.73;;;-1.00;99.90;;;;;;5042379;28;20064;-77
2023/12/01 02:16:51;;;;;;;22.80;11.07;;;-1.10;99.90;;;;;;5059373;28;20255;-77
2023/12/01 02:19:18;;;;;;;21.77;10.25;;;-1.10;99.90;;;;;;5076389;28;20346;-77
2023/12/01 02:21:47;;;;;;;22.48;10.35;;;-1.10;99.90;;;;;;5054710;28;20033;-77
2023/12/01 02:24:13;;;;;;;22.60;11.50;;;-0.70;99.90;;;;;;5039221;28;20026;-77
2023/12/01 02:26:39;;;;;;;19.83;9.15;;;-0.10;99.90;;;;;;5045528;28;20190;-77
2023/12/01 02:29:06;;;;;;;19.70;9.98;;;-1.20;99.90;;;;;;5062383;28;20393;-77
2023/12/01 02:31:32;;;;;;;21.02;11.25;;;-1.20;99.90;;;;;;5061332;28;20032;-77
2023/12/01 02:33:58;;;;;;;22.50;10.00;;;-0.10;99.90;;;;;;5066841;28;20045;-76
2023/12/01 02:36:24;;;;;;;20.88;10.77;;;-1.30;99.90;;;;;;5073669;28;20288;-77
2023/12/01 02:38:50;;;;;;;22.48;10.48;;;0.10;99.90;;;;;;5044566;28;20025;-76
2023/12/01 02:41:17;;;;;;;19.30;9.40;;;-0.30;99.90;;;;;;5059638;28;20033;-77
2023/12/01 02:43:43;;;;;;;18.25;9.13;;;-1.40;99.90;;;;;;5075196;28;20022;-76
2023/12/01 02:46:12;;;;;;;18.25;9.85;;;-1.50;99.90;;;;;;5050151;28;20031;-76
2023/12/01 02:48:39;;;;;;;19.50;9.43;;;-1.50;99.90;;;;;;5054340;28;20029;-76
2023/12/01 02:51:05;;;;;;;20.85;9.90;;;-1.50;99.90;;;;;;5031087;28;20037;-76
2023/12/01 02:53:31;;;;;;;18.92;9.50;;;-1.50;99.90;;;;;;5057510;28;20108;-76
2023/12/01 02:55:57;;;;;;;18.95;9.32;;;-1.60;99.90;;;;;;5042776;28;20028;-76
2023/12/01 02:58:24;;;;;;;18.00;9.13;;;-1.70;99.90;;;;;;5027047;28;20025;-77
2023/12/01 03:00:50;;;;;;;19.17;9.75;;;-1.70;99.90;;;;;;5071667;28;20021;-76
2023/12/01 03:03:15;;;;;;;18.48;8.75;;;-1.70;99.90;;;;;;5042916;28;20053;-76
2023/12/01 03:05:41;;;;;;;18.95;9.15;;;-0.40;99.90;;;;;;5075148;28;20302;-76
2023/12/01 03:08:07;;;;;;;19.58;9.90;;;-1.80;99.90;;;;;;5025841;28;20116;-76
2023/12/01 03:10:34;;;;;;;20.60;10.25;;;-1.80;99.90;;;;;;5031869;28;20277;-76
2023/12/01 03:13:00;;;;;;;21.67;10.55;;;-1.80;99.90;;;;;;5060446;28;20037;-76
2023/12/01 03:15:26;;;;;;;19.55;9.68;;;-1.90;99.90;;;;;;5026669;28;20164;-76
2023/12/01 03:17:52;;;;;;;21.83;9.57;;;-1.50;99.90;;;;;;5016045;28;20279;-76
2023/12/01 03:20:18;;;;;;;20.02;9.60;;;-2.00;99.90;;;;;;5053762;28;20135;-76
2023/12/01 03:22:45;;;;;;;22.02;9.95;;;-1.70;99.90;;;;;;5047944;28;20025;-76
2023/12/01 03:25:11;;;;;;;20.67;10.50;;;-2.00;99.90;;;;;;5032003;28;20246;-76
2023/12/01 03:27:45;;;;;;;22.45;10.63;;;-2.00;99.90;;;;;;5053217;28;20043;-76
2023/12/01 03:30:16;;;;;;;22.08;10.82;;;-2.00;99.90;;;;;;5054379;28;20029;-76
2023/12/01 03:32:48;;;;;;;20.30;10.57;;;-2.10;99.90;;;;;;5024324;28;20041;-76
2023/12/01 03:35:22;;;;;;;21.13;10.77;;;-2.10;99.90;;;;;;5043038;28;20041;-76
2023/12/01 03:37:49;;;;;;;19.83;10.10;;;-2.10;99.90;;;;;;5031258;28;20083;-76
2023/12/01 03:40:15;;;;;;;21.00;9.75;;;-2.10;99.90;;;;;;5047591;28;20052;-76
2023/12/01 03:42:48;;;;;;;18.90;9.68;;;-2.10;99.90;;;;;;5035670;28;20044;-76
2023/12/01 03:45:14;;;;;;;;;;;-2.20;99.90;;;;;;5043382;28;20043;-76
2023/12/01 03:47:45;;;;;;;16.98;8.60;;;-1.20;99.90;;;;;;5048391;28;19904;-76
2023/12/01 03:50:11;;;;;;;18.95;9.75;;;-2.20;99.90;;;;;;5054254;28;20044;-76
2023/12/01 03:52:39;;;;;;;18.88;9.25;;;-2.20;99.90;;;;;;5047332;28;20064;-76
2023/12/01 03:55:06;;;;;;;18.75;9.25;;;-2.20;99.90;;;;;;5029613;28;20025;-76
2023/12/01 03:57:31;;;;;;;21.08;9.45;;;-2.20;99.90;;;;;;5016759;28;20013;-76
2023/12/01 03:59:57;;;;;;;20.88;9.50;;;-2.20;99.90;;;;;;5052490;28;20184;-76
2023/12/01 04:02:23;;;;;;;19.88;9.52;;;-2.20;99.90;;;;;;5050007;28;20272;-76
2023/12/01 04:04:52;;;;;;;18.77;9.25;;;-2.20;99.90;;;;;;5032091;28;20089;-76
2023/12/01 04:07:17;;;;;;;16.42;7.55;;;-2.30;99.90;;;;;;5042393;28;20051;-76
2023/12/01 04:09:43;;;;;;;18.05;9.10;;;-2.30;99.90;;;;;;5018550;28;20028;-76
2023/12/01 04:12:09;;;;;;;19.35;9.32;;;-2.30;99.90;;;;;;5019613;28;20384;-76
2023/12/01 04:14:35;;;;;;;18.73;9.13;;;-2.30;99.90;;;;;;5045264;28;20052;-76
2023/12/01 04:17:08;;;;;;;15.95;8.45;;;-2.30;99.90;;;;;;5040403;28;20106;-76
2023/12/01 04:19:38;;;;;;;17.48;9.27;;;-2.30;99.90;;;;;;5027602;28;20277;-76
2023/12/01 04:22:07;;;;;;;16.70;8.75;;;-2.40;99.90;;;;;;5046138;28;20041;-76
2023/12/01 04:24:33;;;;;;;17.05;9.02;;;-2.40;99.90;;;;;;5050693;28;20032;-76
2023/12/01 04:27:04;;;;;;;16.20;8.05;;;-2.40;99.90;;;;;;5042803;28;20221;-76
2023/12/01 04:29:30;;;;;;;17.52;8.05;;;-2.40;99.90;;;;;;5040086;28;20235;-76
2023/12/01 04:31:59;;;;;;;17.55;8.18;;;-2.40;99.90;;;;;;5042702;28;20108;-77
2023/12/01 04:34:26;;;;;;;17.88;8.45;;;-2.40;99.90;;;;;;5005713;28;20100;-77
2023/12/01 04:36:53;;;;;;;17.48;8.77;;;-2.40;99.90;;;;;;5022765;28;20275;-77
2023/12/01 04:39:18;;;;;;;16.05;8.20;;;-2.50;99.90;;;;;;5024724;28;20113;-77
2023/12/01 04:41:44;;;;;;;16.35;8.18;;;-2.50;99.90;;;;;;5043021;28;20028;-77
2023/12/01 04:44:10;;;;;;;16.73;8.02;;;-2.50;99.90;;;;;;5036917;28;20025;-77
2023/12/01 04:46:35;;;;;;;14.98;7.80;;;-2.50;99.90;;;;;;5034731;28;20017;-77
2023/12/01 04:49:01;;;;;;;18.30;8.38;;;-2.50;99.90;;;;;;5050723;28;20052;-77
2023/12/01 04:51:27;;;;;;;15.73;7.82;;;-2.50;99.90;;;;;;5050775;28;20640;-77
2023/12/01 04:53:53;;;;;;;15.75;7.70;;;-2.50;99.90;;;;;;5048594;28;20178;-76
2023/12/01 04:56:18;;;;;;;16.30;8.07;;;-2.50;99.90;;;;;;5040331;28;20285;-77
2023/12/01 04:58:45;;;;;;;16.13;8.05;;;-2.50;99.90;;;;;;5037272;28;20028;-77
2023/12/01 05:01:11;;;;;;;15.45;7.80;;;-2.50;99.90;;;;;;5008323;28;20080;-77
2023/12/01 05:03:36;;;;;;;17.33;8.48;;;-1.50;99.90;;;;;;5049133;28;20048;-77
2023/12/01 05:06:02;;;;;;;16.60;8.25;;;-2.60;99.90;;;;;;5047366;28;20040;-77
2023/12/01 05:08:28;;;;;;;15.40;8.02;;;-2.60;99.90;;;;;;5031561;28;20088;-77
2023/12/01 05:10:56;;;;;;;17.90;8.85;;;-2.60;99.90;;;;;;5035201;28;20025;-77
2023/12/01 05:13:21;;;;;;;16.33;7.82;;;-2.60;99.90;;;;;;5054825;28;20084;-77
2023/12/01 05:15:47;;;;;;;15.32;7.85;;;-2.60;99.90;;;;;;5063887;28;20152;-77
2023/12/01 05:18:13;;;;;;;17.52;8.85;;;-2.60;99.90;;;;;;5085154;28;20035;-77
2023/12/01 05:20:40;;;;;;;17.52;8.80;;;-2.60;99.90;;;;;;5051465;28;20024;-77
2023/12/01 05:23:09;;;;;;;18.80;9.18;;;-2.70;99.90;;;;;;5073970;28;20032;-77
2023/12/01 05:25:37;;;;;;;18.00;10.05;;;-2.70;99.90;;;;;;5056834;28;20035;-76
2023/12/01 05:28:06;;;;;;;21.00;11.07;;;-2.80;99.90;;;;;;5068809;28;20032;-76
2023/12/01 05:30:33;;;;;;;18.77;9.77;;;-1.70;99.90;;;;;;5066765;28;20024;-76
2023/12/01 05:32:59;;;;;;;17.40;8.60;;;-2.70;99.90;;;;;;5082018;28;20181;-77
2023/12/01 05:35:25;;;;;;;17.50;8.57;;;-2.70;99.90;;;;;;5083529;28;20016;-77
2023/12/01 05:37:54;;;;;;;16.15;8.27;;;-2.80;99.90;;;;;;5067452;28;20084;-77
2023/12/01 05:40:23;;;;;;;18.17;8.60;;;-2.80;99.90;;;;;;5068219;28;20013;-76
2023/12/01 05:42:52;;;;;;;17.70;8.60;;;-2.70;99.90;;;;;;5065732;28;20175;-76
2023/12/01 05:45:20;;;;;;;17.90;9.13;;;-2.70;99.90;;;;;;5091226;28;20028;-76
2023/12/01 05:47:47;;;;;;;21.35;10.02;;;-2.80;99.90;;;;;;5068367;28;20028;-76
2023/12/01 05:50:15;;;;;;;16.92;8.45;;;-2.80;99.90;;;;;;5095042;28;20383;-76
2023/12/01 05:52:42;;;;;;;17.88;8.90;;;-2.80;99.90;;;;;;5055875;28;20063;-76
2023/12/01 05:55:15;;;;;;;18.98;9.60;;;-2.80;99.90;;;;;;5050695;28;20023;-76
2023/12/01 05:57:43;;;;;;;18.33;9.00;;;-2.80;99.90;;;;;;5063786;28;20020;-76
2023/12/01 06:00:20;;;;;;;17.27;8.18;;;-2.80;99.90;;;;;;5059049;28;20043;-76
2023/12/01 06:02:47;;;;;;;17.15;8.10;;;-2.80;99.90;;;;;;5058573;28;20035;-76
2023/12/01 06:05:15;;;;;;;17.52;8.55;;;-2.90;99.90;;;;;;5047630;28;20177;-76
2023/12/01 06:07:42;;;;;;;17.17;7.95;;;-1.40;99.90;;;;;;5045536;28;20032;-76
2023/12/01 06:10:12;;;;;;;16.65;9.00;;;-2.20;99.90;;;;;;5056667;28;20033;-77
2023/12/01 06:12:39;;;;;;;17.95;9.25;;;-2.90;99.90;;;;;;5044442;28;20028;-76
2023/12/01 06:15:09;;;;;;;19.80;10.73;;;-1.90;99.90;;;;;;5071698;28;20074;-77
2023/12/01 06:17:36;;;;;;;21.38;11.73;;;-2.90;99.90;;;;;;5055966;28;20045;-76
2023/12/01 06:20:03;;;;;;;18.13;10.30;;;-3.00;99.90;;;;;;5057003;28;20024;-76
2023/12/01 06:22:29;;;;;;;18.42;9.38;;;-3.00;99.90;;;;;;5025161;28;20255;-76
2023/12/01 06:24:54;;;;;;;19.40;9.60;;;-3.00;99.90;;;;;;5060688;28;20029;-77
2023/12/01 06:27:22;;;;;;;16.38;8.73;;;-3.50;99.90;;;;;;5040699;28;20040;-77
2023/12/01 06:29:50;;;;;;;16.35;8.38;;;-3.10;99.90;;;;;;5055944;28;20029;-76
2023/12/01 06:32:16;;;;;;;17.02;9.40;;;-3.10;99.90;;;;;;5060194;28;20060;-76
2023/12/01 06:34:42;;;;;;;18.08;9.25;;;-3.10;99.90;;;;;;5028423;28;20040;-76
2023/12/01 06:37:08;;;;;;;16.88;9.00;;;-3.10;99.90;;;;;;5059661;28;20040;-76
2023/12/01 06:39:34;;;;;;;17.83;8.80;;;-3.10;99.90;;;;;;5041356;28;20033;-76
2023/12/01 06:41:59;;;;;;;17.25;8.75;;;-3.10;99.90;;;;;;5052779;28;20088;-77
2023/12/01 06:44:25;;;;;;;17.75;8.50;;;-3.10;99.90;;;;;;5038008;28;20033;-77
2023/12/01 06:46:51;;;;;;;19.90;9.65;;;-1.60;99.90;;;;;;5058230;28;20058;-77
2023/12/01 06:49:19;;;;;;;17.50;8.55;;;-3.20;99.90;;;;;;5056688;28;20020;-77
2023/12/01 06:51:45;;;;;;;17.95;9.10;;;-3.20;99.90;;;;;;5055477;28;20035;-76
2023/12/01 06:54:10;;;;;;;16.73;8.73;;;-3.10;99.90;;;;;;5038349;28;20107;-76
2023/12/01 06:56:39;;;;;;;16.80;8.57;;;-3.20;99.90;;;;;;5056399;28;20032;-77
2023/12/01 06:59:08;;;;;;;17.08;9.02;;;-3.20;99.90;;;;;;5038175;28;20123;-77
2023/12/01 07:01:35;;;;;;;17.85;8.77;;;-3.20;99.90;;;;;;5028228;28;20015;-77
2023/12/01 07:04:07;;;;;;;16.48;8.02;;;-3.20;99.90;;;;;;5042723;28;20009;-77
2023/12/01 07:06:35;;;;;;;16.08;8.02;;;-3.20;99.90;;;;;;5011586;28;20067;-77
2023/12/01 07:09:01;;;;;;;16.52;8.43;;;-3.20;99.90;;;;;;5036979;28;20100;-77
2023/12/01 07:11:27;;;;;;;16.73;8.40;;;-3.30;99.90;;;;;;5026789;28;20012;-77
2023/12/01 07:13:54;;;;;;;16.95;8.32;;;-2.40;99.90;;;;;;5058532;28;20020;-77
2023/12/01 07:16:20;;;;;;;16.52;8.90;;;-3.10;99.90;;;;;;5062969;28;20107;-78
2023/12/01 07:18:45;;;;;;;18.17;9.02;;;-2.20;99.90;;;;;;5062750;28;20040;-78
2023/12/01 07:21:11;;;;;;;16.85;8.45;;;-3.20;99.90;;;;;;5062629;28;20040;-77
2023/12/01 07:23:40;;;;;;;15.52;7.70;;;-2.40;99.90;;;;;;5061151;28;20082;-77
2023/12/01 07:26:06;;;;;;;16.95;8.55;;;-3.20;99.90;;;;;;5092072;28;20055;-77
2023/12/01 07:28:32;;;;;;;17.08;8.40;;;-3.20;99.90;;;;;;5044598;28;20016;-78
2023/12/01 07:30:59;;;;;;;18.42;9.38;;;-3.30;99.90;;;;;;5059438;28;20219;-77
2023/12/01 07:33:25;;;;;;;17.15;8.50;;;-3.20;99.90;;;;;;5075501;28;20024;-77
2023/12/01 07:35:51;;;;;;;18.05;8.70;;;-3.20;99.90;;;;;;5070177;28;20540;-77
2023/12/01 07:38:17;;;;;;;18.48;8.38;;;-3.20;99.90;;;;;;5055803;28;20282;-77
2023/12/01 07:40:44;;;;;;;18.42;9.13;;;-1.70;99.90;;;;;;5060727;28;20012;-77
2023/12/01 07:43:11;;;;;;;17.00;8.23;;;-3.20;99.90;;;;;;5056983;28;20037;-77
2023/12/01 07:45:36;;;;;;;17.02;8.25;;;-3.20;99.90;;;;;;5058116;28;20082;-77
2023/12/01 07:48:02;;;;;;;16.48;8.57;;;-3.20;99.90;;;;;;5077577;28;20047;-77
2023/12/01 07:50:28;;;;;;;17.48;8.68;;;-3.20;99.90;;;;;;5060305;28;20413;-78
2023/12/01 07:52:54;;;;;;;17.67;8.70;;;-3.20;99.90;;;;;;5057993;28;20297;-77
2023/12/01 07:55:20;;;;;;;16.77;8.48;;;-3.10;99.90;;;;;;5060190;28;20098;-77
2023/12/01 07:57:46;;;;;;;17.35;8.50;;;-3.10;99.90;;;;;;5060700;28;20331;-77
2023/12/01 08:00:16;;;;;;;18.15;8.90;;;-3.20;99.90;;;;;;5059076;28;20078;-77
2023/12/01 08:02:46;;;;;;;18.00;8.63;;;-3.20;99.90;;;;;;5061824;28;20083;-77
2023/12/01 08:05:14;;;;;;;18.30;9.07;;;-3.10;99.90;;;;;;5059112;28;20040;-77
2023/12/01 08:07:43;;;;;;;16.95;8.43;;;-3.10;99.90;;;;;;5042425;28;20151;-77
2023/12/01 08:10:09;;;;;;;18.27;9.15;;;-3.10;99.90;;;;;;5051497;28;20020;-77
2023/12/01 08:12:35;;;;;;;19.20;9.32;;;-2.40;99.90;;;;;;5063919;28;20036;-77
2023/12/01 08:15:01;;;;;;;18.13;8.95;;;-2.90;99.90;;;;;;5058656;28;20157;-77
2023/12/01 08:17:27;;;;;;;17.20;8.80;;;-3.00;99.90;;;;;;5061563;28;20030;-78
2023/12/01 08:19:52;;;;;;;16.00;8.52;;;-2.90;99.90;;;;;;5041671;28;20092;-77
2023/12/01 08:22:18;;;;;;;17.33;8.93;;;-2.90;99.90;;;;;;5069109;28;20294;-77
2023/12/01 08:24:47;;;;;;;18.42;9.50;;;;;;;;;;5059604;28;20028;-77
2023/12/01 08:27:12;;;;;;;16.70;8.68;;;-2.90;99.90;;;;;;5060508;28;20301;-77
2023/12/01 08:29:38;;;;;;;17.55;8.98;;;-2.80;99.90;;;;;;5060187;28;20079;-78
2023/12/01 08:32:05;;;;;;;18.15;8.75;;;-2.80;99.90;;;;;;5061091;28;20301;-78
2023/12/01 08:34:30;;;;;;;18.40;9.13;;;-2.70;99.90;;;;;;5046289;28;20017;-77
2023/12/01 08:36:56;;;;;;;17.70;8.38;;;-2.70;99.90;;;;;;5058973;28;20397;-77
2023/12/01 08:39:22;;;;;;;17.25;9.32;;;-2.70;99.90;;;;;;5039410;28;20047;-78
2023/12/01 08:41:51;;;;;;;17.98;8.77;;;-2.70;99.90;;;;;;5059364;28;20091;-77
2023/12/01 08:44:17;;;;;;;18.17;9.30;;;-2.60;99.90;;;;;;5046089;28;20028;-77
2023/12/01 08:46:43;;;;;;;18.05;8.80;;;-2.50;99.90;;;;;;5051889;28;20028;-77
2023/12/01 08:49:09;;;;;;;16.40;8.45;;;-2.40;99.90;;;;;;5028603;28;20031;-77
2023/12/01 08:51:34;;;;;;;18.27;9.23;;;-2.40;99.90;;;;;;5055124;28;20027;-77
2023/12/01 08:54:00;;;;;;;18.23;9.65;;;-2.30;99.90;;;;;;5056979;28;20021;-78
2023/12/01 08:56:34;;;;;;;18.08;9.43;;;-1.80;99.90;;;;;;5042358;28;20017;-77
2023/12/01 08:59:00;;;;;;;18.33;9.68;;;-2.20;99.90;;;;;;5058889;28;20028;-77
2023/12/01 09:01:26;;;;;;;19.10;9.38;;;-2.10;99.90;;;;;;5041894;28;20028;-78
2023/12/01 09:03:52;;;;;;;19.50;8.90;;;-2.10;99.90;;;;;;5089500;28;20075;-78
2023/12/01 09:06:17;;;;;;;17.80;9.48;;;-2.00;99.90;;;;;;5058557;28;20258;-78
2023/12/01 09:08:43;;;;;;;17.80;9.00;;;-1.00;99.90;;;;;;5059454;28;20050;-78
2023/12/01 09:11:09;;;;;;;17.65;8.73;;;-2.00;99.90;;;;;;5044285;28;20024;-78
2023/12/01 09:13:36;;;;;;;18.58;9.55;;;-1.90;99.90;;;;;;5053325;28;20041;-78
2023/12/01 09:16:02;;;;;;;16.90;9.45;;;-1.90;99.90;;;;;;5063107;28;20075;-78
2023/12/01 09:18:31;;;;;;;17.25;9.13;;;-1.80;99.90;;;;;;5040629;28;20070;-78
2023/12/01 09:20:57;;;;;;;17.20;8.70;;;-1.80;99.90;;;;;;5058320;28;20033;-78
2023/12/01 09:23:24;;;;;;;17.58;9.07;;;-0.70;99.90;;;;;;5062825;28;20020;-78
2023/12/01 09:25:50;;;;;;;17.70;8.38;;;0.10;99.90;;;;;;5091150;28;20052;-78
2023/12/01 09:28:16;;;;;;;18.08;9.10;;;-1.60;99.90;;;;;;5047536;28;20341;-77
2023/12/01 09:30:42;;;;;;;16.42;9.15;;;0.00;99.90;;;;;;5063484;28;20074;-78
2023/12/01 09:33:08;;;;;;;17.58;9.32;;;-1.50;99.90;;;;;;5049678;28;20067;-78
2023/12/01 09:35:33;;;;;;;19.23;9.98;;;-1.50;99.90;;;;;;5079632;28;20031;-78
2023/12/01 09:38:00;;;;;;;17.88;8.43;;;-0.20;99.90;;;;;;5064040;28;20465;-78
2023/12/01 09:40:25;;;;;;;16.88;8.80;;;-1.40;99.90;;;;;;5065304;28;20201;-78
2023/12/01 09:42:53;;;;;;;15.90;8.75;;;-1.30;99.90;;;;;;5065124;28;20384;-78
2023/12/01 09:45:20;;;;;;;16.98;9.02;;;-1.30;99.90;;;;;;5046549;28;20343;-78
2023/12/01 09:47:57;;;;;;;18.05;9.23;;;-0.70;99.90;;;;;;5051017;28;20013;-78
2023/12/01 09:50:23;;;;;;;18.08;9.15;;;0.30;99.90;;;;;;5047462;28;20025;-78
2023/12/01 09:52:51;;;;;;;17.55;9.00;;;-1.20;99.90;;;;;;5063514;28;20021;-78
2023/12/01 09:55:17;;;;;;;16.48;8.95;;;-1.20;99.90;;;;;;5091655;28;20262;-78
2023/12/01 09:57:42;;;;;;;17.63;9.23;;;-1.10;99.90;;;;;;5064409;28;20078;-78
2023/12/01 10:00:11;;;;;;;18.35;9.45;;;-1.00;99.90;;;;;;5063696;28;20080;-78
2023/12/01 10:02:40;;;;;;;17.77;9.25;;;-1.10;99.90;;;;;;5042418;28;20025;-78
2023/12/01 10:05:06;;;;;;;16.67;8.77;;;-1.10;99.90;;;;;;5062999;28;20024;-78
2023/12/01 10:07:35;;;;;;;19.48;9.63;;;-1.10;99.90;;;;;;5063126;28;20024;-78
2023/12/01 10:10:20;;;;;;;18.58;9.13;;;-1.10;99.90;;;;;;5064619;28;20024;-78
2023/12/01 10:12:53;;;;;;;19.20;9.65;;;-1.10;99.90;;;;;;5060647;28;20036;-78
2023/12/01 10:15:19;;;;;;;16.58;8.65;;;-1.10;99.90;;;;;;5056636;28;20117;-78
2023/12/01 10:17:45;;;;;;;18.13;9.23;;;0.40;99.90;;;;;;5058047;28;20052;-78
2023/12/01 10:20:17;;;;;;;20.20;9.98;;;-0.90;99.90;;;;;;5025734;28;20017;-78
2023/12/01 10:22:44;;;;;;;19.80;9.60;;;-1.10;99.90;;;;;;5044276;28;20028;-78
2023/12/01 10:25:12;;;;;;;16.38;8.48;;;-1.00;99.90;;;;;;5042485;28;20036;-77
2023/12/01 10:27:39;;;;;;;19.70;9.30;;;0.20;99.90;;;;;;5059596;28;20023;-77
2023/12/01 10:30:13;;;;;;;16.88;8.45;;;-0.90;99.90;;;;;;5057838;28;20060;-77
2023/12/01 10:32:41;;;;;;;18.08;9.23;;;-0.90;99.90;;;;;;5057875;28;20028;-77
2023/12/01 10:35:07;;;;;;;17.85;9.38;;;0.30;99.90;;;;;;5058677;28;20978;-78
2023/12/01 10:37:36;;;;;;;19.45;9.70;;;-0.80;99.90;;;;;;5059739;28;20045;-78
2023/12/01 10:40:05;;;;;;;19.58;10.15;;;-0.80;99.90;;;;;;5048581;28;20027;-78
2023/12/01 10:42:34;;;;;;;16.95;8.75;;;-0.80;99.90;;;;;;5057185;28;20036;-78
2023/12/01 10:45:04;;;;;;;17.52;8.95;;;-0.80;99.90;;;;;;5059977;28;20062;-77
2023/12/01 10:47:32;;;;;;;18.55;9.32;;;-0.80;99.90;;;;;;5041025;28;20016;-77
2023/12/01 10:49:58;;;;;;;16.13;8.40;;;-0.80;99.90;;;;;;5057974;28;20035;-78
2023/12/01 10:52:30;;;;;;;17.60;8.80;;;-0.80;99.90;;;;;;5057023;28;20499;-78
2023/12/01 10:54:55;;;;;;;18.40;10.02;;;-0.80;99.90;;;;;;5058900;28;20040;-78
2023/12/01 10:57:40;;;;;;;18.08;9.25;;;0.70;99.90;;;;;;5057452;28;20021;-77
2023/12/01 11:00:29;;;;;;;16.88;8.68;;;-0.60;99.90;;;;;;5060544;28;20025;-78
2023/12/01 11:02:58;;;;;;;17.58;9.35;;;-0.70;99.90;;;;;;5041433;28;20527;-78
2023/12/01 11:05:26;;;;;;;16.75;8.43;;;-0.60;99.90;;;;;;5038852;28;20044;-78
2023/12/01 11:08:10;;;;;;;16.27;8.60;;;0.20;99.90;;;;;;5043298;28;20048;-78
2023/12/01 11:11:04;;;;;;;17.73;9.63;;;-0.50;99.90;;;;;;5043336;28;20013;-78
2023/12/01 11:13:46;;;;;;;;;;;-0.40;99.90;;;;;;5053774;28;20052;-78
2023/12/01 11:16:13;;;;;;;16.33;7.93;;;-0.40;99.90;;;;;;5090740;28;19909;-78
2023/12/01 11:18:43;;;;;;;17.17;8.70;;;-0.40;99.90;;;;;;5078780;28;20021;-78
2023/12/01 11:21:09;;;;;;;16.60;9.15;;;-0.40;99.90;;;;;;5055201;28;20093;-78
2023/12/01 11:23:35;;;;;;;16.73;8.45;;;-0.40;99.90;;;;;;5042519;28;20021;-78
2023/12/01 11:26:08;;;;;;;17.35;9.32;;;-0.40;99.90;;;;;;5042773;28;20095;-78
2023/12/01 11:31:14;;;;;;;16.92;9.23;;;0.20;99.90;;;;;;5055855;28;19905;-79
2023/12/01 11:33:47;;;;;;;17.48;9.23;;;-0.30;99.90;;;;;;5060545;28;20067;-78
2023/12/01 11:36:25;;;;;;;17.50;8.95;;;-0.30;99.90;;;;;;5040574;28;20193;-78
2023/12/01 11:41:55;;;;;;;17.20;8.52;;;-0.30;99.90;;;;;;5058723;28;20017;-78
2023/12/01 11:44:50;;;;;;;18.25;8.57;;;-0.20;99.90;;;;;;5059555;28;20509;-78
2023/12/01 11:47:16;;;;;;;18.35;8.93;;;-0.20;99.90;;;;;;5056337;28;20025;-78
2023/12/01 11:49:43;;;;;;;16.83;8.60;;;-0.20;99.90;;;;;;5052952;28;20024;-78
2023/12/01 11:52:18;;;;;;;18.60;9.18;;;-0.20;99.90;;;;;;5056264;28;20028;-78
2023/12/01 11:54:45;;;;;;;16.50;8.35;;;-0.20;99.90;;;;;;5070827;28;20020;-78
2023/12/01 11:57:16;;;;;;;16.90;8.65;;;-0.20;99.90;;;;;;5039730;28;20013;-78
2023/12/01 11:59:45;;;;;;;18.38;9.88;;;1.40;99.90;;;;;;5057211;28;20067;-78
2023/12/01 12:02:14;;;;;;;17.80;9.52;;;0.30;99.90;;;;;;5054652;28;20063;-78
2023/12/01 12:04:39;;;;;;;18.48;9.25;;;-0.20;99.90;;;;;;5056922;28;20108;-78
2023/12/01 12:07:06;;;;;;;17.23;9.10;;;0.70;99.90;;;;;;5024750;28;20021;-78
2023/12/01 12:09:33;;;;;;;16.30;8.65;;;-0.20;99.90;;;;;;5055296;28;20306;-78
2023/12/01 12:12:05;;;;;;;18.65;9.85;;;-0.20;99.90;;;;;;5054691;28;20221;-78
2023/12/01 12:14:32;;;;;;;16.75;8.88;;;-0.20;99.90;;;;;;5055570;28;20045;-78
2023/12/01 12:17:02;;;;;;;16.63;8.77;;;0.90;99.90;;;;;;5056299;28;20093;-78
2023/12/01 12:19:43;;;;;;;16.50;8.23;;;0.00;99.90;;;;;;5058732;28;20101;-78
2023/12/01 12:22:09;;;;;;;16.88;8.50;;;-0.10;99.90;;;;;;5056009;28;20092;-78
2023/12/01 12:24:35;;;;;;;16.85;8.20;;;-0.10;99.90;;;;;;5053558;28;20056;-77
2023/12/01 12:27:00;;;;;;;17.85;8.90;;;-0.10;99.90;;;;;;5024237;28;20258;-78
2023/12/01 12:29:27;;;;;;;16.40;8.88;;;1.70;99.90;;;;;;5058217;28;20120;-78
2023/12/01 12:31:52;;;;;;;15.93;8.25;;;-0.10;99.90;;;;;;5040673;28;20043;-78
2023/12/01 12:34:19;;;;;;;17.60;8.93;;;1.30;99.90;;;;;;5040391;28;20349;-78
2023/12/01 12:36:46;;;;;;;16.80;8.82;;;1.00;99.90;;;;;;5023495;28;20032;-78
2023/12/01 12:39:16;;;;;;;15.43;8.10;;;0.00;99.90;;;;;;5043716;28;20103;-78
2023/12/01 12:41:49;;;;;;;16.75;8.50;;;-0.10;99.90;;;;;;5036352;28;20013;-78